createdAt,value
2022-08-30T00:04:24.731Z,13.93
2022-08-30T00:09:09.717Z,17.90
2022-08-30T00:13:58.328Z,15.15
2022-08-30T00:18:43.776Z,16.35
2022-08-30T00:23:32.053Z,15.88
2022-08-30T00:28:17.719Z,15.82
2022-08-30T00:33:03.054Z,17.17
2022-08-30T00:37:48.055Z,15.43
2022-08-30T00:42:36.596Z,14.25
2022-08-30T00:47:22.336Z,16.35
2022-08-30T00:52:09.078Z,15.68
2022-08-30T00:56:55.710Z,14.48
2022-08-30T01:01:44.206Z,17.10
2022-08-30T01:06:32.730Z,16.85
2022-08-30T01:11:21.840Z,13.52
2022-08-30T01:16:08.252Z,16.92
2022-08-30T01:21:03.826Z,17.77
2022-08-30T01:25:53.956Z,17.05
2022-08-30T01:30:40.652Z,16.88
2022-08-30T01:35:26.001Z,17.25
2022-08-30T01:40:13.241Z,18.20
2022-08-30T01:45:00.978Z,15.73
2022-08-30T01:49:46.273Z,16.35
2022-08-30T01:54:35.927Z,15.10
2022-08-30T01:59:23.397Z,15.95
2022-08-30T02:04:14.650Z,15.55
2022-08-30T02:09:00.272Z,19.52
2022-08-30T02:13:46.653Z,13.93
2022-08-30T02:18:32.227Z,15.30
2022-08-30T02:23:20.504Z,14.00
2022-08-30T02:28:06.420Z,13.10
2022-08-30T02:32:51.467Z,16.65
2022-08-30T02:37:36.915Z,14.15
2022-08-30T02:42:24.507Z,14.32
2022-08-30T02:47:10.210Z,18.38
2022-08-30T02:51:55.578Z,15.75
2022-08-30T02:56:41.971Z,13.85
2022-08-30T03:01:29.690Z,15.82
2022-08-30T03:06:15.148Z,16.88
2022-08-30T03:11:00.228Z,14.35
2022-08-30T03:15:45.558Z,18.58
2022-08-30T03:20:35.291Z,16.90
2022-08-30T03:25:21.258Z,15.18
2022-08-30T03:30:08.082Z,14.30
2022-08-30T03:34:53.567Z,14.75
2022-08-30T03:39:41.340Z,16.40
2022-08-30T03:44:26.745Z,15.80
2022-08-30T03:49:13.017Z,17.67
2022-08-30T03:53:58.321Z,17.40
2022-08-30T03:58:46.069Z,19.50
2022-08-30T04:03:33.330Z,17.40
2022-08-30T04:08:18.316Z,17.08
2022-08-30T04:13:03.658Z,13.25
2022-08-30T04:17:51.617Z,20.33
2022-08-30T04:22:37.111Z,19.02
2022-08-30T04:27:22.352Z,14.00
2022-08-30T04:32:08.793Z,14.07
2022-08-30T04:36:56.546Z,12.93
2022-08-30T04:41:42.964Z,16.10
2022-08-30T04:46:28.118Z,16.85
2022-08-30T04:51:17.025Z,16.77
2022-08-30T04:56:05.398Z,15.27
2022-08-30T05:00:50.871Z,17.55
2022-08-30T05:05:45.810Z,15.88
2022-08-30T05:10:31.235Z,14.63
2022-08-30T05:15:19.493Z,17.48
2022-08-30T05:20:05.079Z,15.10
2022-08-30T05:24:50.238Z,13.02
2022-08-30T05:29:36.138Z,16.13
2022-08-30T05:34:23.792Z,13.57
2022-08-30T05:39:10.164Z,12.43
2022-08-30T05:43:56.548Z,16.95
2022-08-30T05:48:42.514Z,13.43
2022-08-30T05:53:30.190Z,15.80
2022-08-30T05:58:16.191Z,14.38
2022-08-30T06:03:02.587Z,14.68
2022-08-30T06:07:47.983Z,13.43
2022-08-30T06:12:35.833Z,13.45
2022-08-30T06:17:21.142Z,13.43
2022-08-30T06:22:06.415Z,12.95
2022-08-30T06:26:52.337Z,13.00
2022-08-30T06:31:40.084Z,12.50
2022-08-30T06:36:27.755Z,13.93
2022-08-30T06:41:14.998Z,12.45
2022-08-30T06:46:05.135Z,13.75
2022-08-30T06:50:56.874Z,11.23
2022-08-30T06:55:42.401Z,12.48
2022-08-30T07:00:27.932Z,10.32
2022-08-30T07:05:18.631Z,10.70
2022-08-30T07:10:08.637Z,10.37
2022-08-30T07:14:53.921Z,10.20
2022-08-30T07:19:39.111Z,12.70
2022-08-30T07:24:25.234Z,10.27
2022-08-30T07:29:13.404Z,14.13
2022-08-30T07:33:59.130Z,8.10
2022-08-30T07:38:44.345Z,5.80
2022-08-30T07:43:29.808Z,8.65
2022-08-30T07:48:17.558Z,9.75
2022-08-30T07:53:04.728Z,7.40
2022-08-30T07:57:51.923Z,8.63
2022-08-30T08:02:37.546Z,7.97
2022-08-30T08:07:25.289Z,9.18
2022-08-30T08:12:11.103Z,12.00
2022-08-30T08:16:56.164Z,7.57
2022-08-30T08:21:41.623Z,9.85
2022-08-30T08:26:29.286Z,11.93
2022-08-30T08:31:18.087Z,12.38
2022-08-30T08:36:05.185Z,10.98
2022-08-30T08:41:14.473Z,12.32
2022-08-30T08:46:09.180Z,9.27
2022-08-30T08:51:07.941Z,7.53
2022-08-30T08:55:55.596Z,8.98
2022-08-30T09:00:40.845Z,13.40
2022-08-30T09:05:31.445Z,15.70
2022-08-30T09:10:18.390Z,12.60
2022-08-30T09:15:14.890Z,10.43
2022-08-30T09:20:03.996Z,9.70
2022-08-30T09:24:54.433Z,11.77
2022-08-30T09:29:52.283Z,10.60
2022-08-30T09:34:38.460Z,8.90
2022-08-30T09:39:32.925Z,9.60
2022-08-30T09:44:24.025Z,13.32
2022-08-30T09:54:19.300Z,12.47
2022-08-30T09:59:14.598Z,10.55
2022-08-30T10:04:09.580Z,7.85
2022-08-30T10:09:05.259Z,10.48
2022-08-30T10:14:14.871Z,12.57
2022-08-30T10:19:11.973Z,8.15
2022-08-30T10:24:01.460Z,8.18
2022-08-30T10:28:50.791Z,10.75
2022-08-30T10:33:42.471Z,10.15
2022-08-30T10:38:35.567Z,8.15
2022-08-30T10:43:27.810Z,13.05
2022-08-30T10:48:20.858Z,15.93
2022-08-30T10:53:13.029Z,13.43
2022-08-30T10:58:06.290Z,9.88
2022-08-30T11:03:17.507Z,11.43
2022-08-30T11:08:20.237Z,13.13
2022-08-30T11:13:14.639Z,10.55
2022-08-30T11:18:03.497Z,9.30
2022-08-30T11:23:24.058Z,9.75
2022-08-30T11:28:12.521Z,10.00
2022-08-30T11:33:07.993Z,11.98
2022-08-30T11:37:54.961Z,13.05
2022-08-30T11:42:45.763Z,10.40
2022-08-30T11:47:47.742Z,16.45
2022-08-30T11:52:51.380Z,12.23
2022-08-30T11:57:49.926Z,13.57
2022-08-30T12:02:59.308Z,11.23
2022-08-30T12:08:01.004Z,14.73
2022-08-30T12:12:57.604Z,10.40
2022-08-30T12:18:15.254Z,9.65
2022-08-30T12:23:20.305Z,11.43
2022-08-30T12:28:18.668Z,13.23
2022-08-30T12:33:06.544Z,9.20
2022-08-30T12:38:01.515Z,12.02
2022-08-30T12:42:54.779Z,11.07
2022-08-30T12:47:46.951Z,14.80
2022-08-30T12:52:40.017Z,12.35
2022-08-30T12:57:40.606Z,15.80
2022-08-30T13:02:28.417Z,12.35
2022-08-30T13:07:14.430Z,12.15
2022-08-30T13:12:10.017Z,11.82
2022-08-30T13:17:09.130Z,11.43
2022-08-30T13:21:56.361Z,13.30
2022-08-30T13:26:42.386Z,11.70
2022-08-30T13:31:33.172Z,14.15
2022-08-30T13:41:03.526Z,15.70
2022-08-30T13:45:49.214Z,14.88
2022-08-30T13:50:37.274Z,15.10
2022-08-30T13:55:22.486Z,13.38
2022-08-30T14:00:10.371Z,12.25
2022-08-30T14:05:00.949Z,15.30
2022-08-30T14:09:52.096Z,15.90
2022-08-30T14:14:43.122Z,13.80
2022-08-30T14:19:29.230Z,14.63
2022-08-30T14:24:15.100Z,13.43
2022-08-30T14:29:10.583Z,13.48
2022-08-30T14:33:55.914Z,17.67
2022-08-30T14:38:42.731Z,12.48
2022-08-30T14:43:27.888Z,14.48
2022-08-30T14:48:16.304Z,22.88
2022-08-30T14:53:01.419Z,15.18
2022-08-30T14:57:46.789Z,10.77
2022-08-30T15:02:31.831Z,31.25
2022-08-30T15:07:19.782Z,19.77
2022-08-30T15:12:06.319Z,18.38
2022-08-30T15:16:53.255Z,17.02
2022-08-30T15:21:41.075Z,16.48
2022-08-30T15:26:29.799Z,16.98
2022-08-30T15:31:14.937Z,11.55
2022-08-30T15:36:03.351Z,14.90
2022-08-30T15:40:52.837Z,15.95
2022-08-30T15:45:41.144Z,12.07
2022-08-30T15:50:26.536Z,16.42
2022-08-30T15:55:12.719Z,19.67
2022-08-30T15:59:57.748Z,17.05
2022-08-30T16:04:47.375Z,12.93
2022-08-30T16:09:33.738Z,19.25
2022-08-30T16:14:19.209Z,16.10
2022-08-30T16:19:04.283Z,16.75
2022-08-30T16:23:52.734Z,15.18
2022-08-30T16:28:38.391Z,16.27
2022-08-30T16:33:25.019Z,22.40
2022-08-30T16:38:10.074Z,17.33
2022-08-30T16:42:57.942Z,14.88
2022-08-30T16:47:44.737Z,19.13
2022-08-30T16:52:30.082Z,15.82
2022-08-30T16:57:15.219Z,21.08
2022-08-30T17:02:04.289Z,18.98
2022-08-30T17:06:50.250Z,15.45
2022-08-30T17:11:36.033Z,18.23
2022-08-30T17:16:28.170Z,17.25
2022-08-30T17:21:16.727Z,36.75
2022-08-30T17:26:02.105Z,16.30
2022-08-30T17:30:48.068Z,18.50
2022-08-30T17:35:36.060Z,15.35
2022-08-30T17:40:24.262Z,14.85
2022-08-30T17:45:13.166Z,18.58
2022-08-30T17:49:58.948Z,21.30
2022-08-30T17:54:44.896Z,18.50
2022-08-30T17:59:32.966Z,17.77
2022-08-30T18:09:25.311Z,21.55
2022-08-30T18:14:12.890Z,17.45
2022-08-30T18:19:01.477Z,21.10
2022-08-30T18:23:47.328Z,18.30
2022-08-30T18:28:33.104Z,17.45
2022-08-30T18:33:19.941Z,15.82
2022-08-30T18:38:11.033Z,21.08
2022-08-30T18:42:56.179Z,19.63
2022-08-30T18:47:42.337Z,18.90
2022-08-30T18:52:28.378Z,24.63
2022-08-30T18:57:17.039Z,26.30
2022-08-30T19:02:02.154Z,17.75
2022-08-30T19:06:47.710Z,18.77
2022-08-30T19:11:32.935Z,17.40
2022-08-30T19:16:21.293Z,21.17
2022-08-30T19:21:06.604Z,17.85
2022-08-30T19:26:00.659Z,19.25
2022-08-30T19:30:46.568Z,21.88
2022-08-30T19:35:34.678Z,21.92
2022-08-30T19:40:22.581Z,18.42
2022-08-30T19:45:09.125Z,20.23
2022-08-30T19:49:54.199Z,21.25
2022-08-30T19:54:42.390Z,32.58
2022-08-30T19:59:28.364Z,22.38
2022-08-30T20:04:15.922Z,18.17
2022-08-30T20:09:01.071Z,18.77
2022-08-30T20:13:49.082Z,22.90
2022-08-30T20:18:35.310Z,25.13
2022-08-30T20:23:25.244Z,21.88
2022-08-30T20:24:26.591Z,20.10
2022-08-30T20:28:10.636Z,21.27
2022-08-30T20:32:59.038Z,24.98
2022-08-30T20:37:46.509Z,26.02
2022-08-30T20:42:32.216Z,20.88
2022-08-30T20:47:17.937Z,19.80
2022-08-30T20:52:06.978Z,23.60
2022-08-30T21:01:40.118Z,26.67
2022-08-30T21:06:26.215Z,28.15
2022-08-30T21:11:14.150Z,24.75
2022-08-30T21:16:03.510Z,20.10
2022-08-30T21:20:49.258Z,27.48
2022-08-30T21:25:34.743Z,21.13
2022-08-30T21:30:22.968Z,25.60
2022-08-30T21:35:21.730Z,19.55
2022-08-30T21:40:08.192Z,23.80
2022-08-30T21:44:53.825Z,23.08
2022-08-30T21:49:44.195Z,18.13
2022-08-30T21:54:31.273Z,21.67
2022-08-30T21:59:18.425Z,22.88
2022-08-30T22:04:05.399Z,24.40
2022-08-30T22:08:53.733Z,24.83
2022-08-30T22:13:40.490Z,22.95
2022-08-30T22:18:26.117Z,23.08
2022-08-30T22:23:11.165Z,21.88
2022-08-30T22:28:04.356Z,24.38
2022-08-30T22:32:49.671Z,19.50
2022-08-30T22:37:36.798Z,19.90
2022-08-30T22:42:21.827Z,19.85
2022-08-30T22:47:10.026Z,21.10
2022-08-30T22:51:55.062Z,21.17
2022-08-30T22:56:41.962Z,24.05
2022-08-30T23:01:29.362Z,21.83
2022-08-30T23:06:17.409Z,24.30
2022-08-30T23:11:02.703Z,19.00
2022-08-30T23:15:48.214Z,22.23
2022-08-30T23:20:33.413Z,22.63
2022-08-30T23:25:41.210Z,24.40
2022-08-30T23:30:40.123Z,23.98
2022-08-30T23:35:37.817Z,24.17
2022-08-30T23:40:38.831Z,27.15
2022-08-30T23:45:36.586Z,19.17
2022-08-30T23:50:34.014Z,26.52
2022-08-30T23:55:31.779Z,25.02
